Tiempo atmosférico en la estación meteorológica de Logroño Aeropuerto, La Rioja (353 m.)



Fecha
DESCASC
Temp. máxima en grados centígrados (hora)
DESCASC
Temp. mínima en grados centígrados (hora)
DESCASC
Temp. media en grados centígrados
DESCASC
Racha de viento máxima en m/sg (hora)
DESCASC
Velocidad máxima media en intervalos de 10 minutos(hora)
DESCASC
Precipitaciones diarias en mm
DESCASC
Precipitaciones de 00:00 a 06:00 en mm
DESCASC
Precipitaciones de 06:00 a 12:00 en mm
DESCASC
Precipitaciones de 12:00 a 18:00 en mm
DESCASC
Precipitaciones de 18:00 a 24:00 en mm
DESCASC
19-05-2019 15.5 (19:00) 9.4 (23:59) 12.4 11.39 (03:30) 6.94 (03:30) 0 0 0 0 0
18-05-2019 16 (16:30) 7.6 (07:00) 11.8 10.28 (12:50) 5.83 (11:20) 0.6 0 0 0.6 0
17-05-2019 13.2 (19:00) 9.3 (03:40) 11.3 12.78 (10:50) 7.22 (10:00) 18.8 18.4 0.4 0 0
16-05-2019 25.6 (17:20) 7.5 (00:00) 16.6 8.33 (11:10) 5.83 (14:40) 2.5 0 0 0 2.5
15-05-2019 28.8 (16:40) 10.8 (00:00) 19.8 8.89 (11:10) 5.56 (11:10) 0 0 0 0 0
14-05-2019 29 (19:10) 7.3 (00:00) 18.2 5.83 (18:30) 3.61 (00:10) 0 0 0 0 0
13-05-2019 23.7 (17:30) 9 (00:00) 16.4 10.83 (12:40) 5.56 (09:30) 0 0 0 0 0
12-05-2019 23.1 (17:50) 7.2 (00:00) 15.2 7.78 (15:40) 4.44 (15:10) 0 0 0 0 0
11-05-2019 20.5 (16:20) 11.4 (00:00) 15.9 8.89 (14:40) 4.72 (14:40) 0 0 0 0 0
10-05-2019 26.1 (19:10) 12.7 (00:00) 19.4 9.17 (17:20) 5.56 (18:50) 0.6 0.6 0 0 0
09-05-2019 20.3 (14:30) 10.3 (00:00) 15.3 9.72 (01:40) 5 (01:30) 0 0 0 0 0
08-05-2019 23.1 (17:00) 13.7 (00:00) 18.4 16.11 (15:40) 10 (14:30) 0 0 0 0 0
07-05-2019 23.7 (17:00) 7.5 (00:00) 15.6 -- (--) -- (--) 0 0 0 0 0
06-05-2019 25 (18:50) 1.9 (00:00) 13.4 5 (09:00) 3.61 (09:00) 0 0 0 0 0
05-05-2019 16.8 (17:40) 4.6 (00:00) 10.7 9.72 (16:20) 5.83 (20:10) 0 0 0 0 0
04-05-2019 18.1 (16:00) 8.2 (00:00) 13.2 10.28 (19:10) 5 (19:00) 0 0 0 0 0
03-05-2019 14.4 (17:50) 7.7 (00:00) 11 7.78 (15:50) 4.72 (11:30) 1.6 0 1.6 0 0
02-05-2019 17.7 (16:10) 10.2 (07:00) 14 8.33 (17:00) 5 (17:00) 0 0 0 0 0
01-05-2019 24.2 (17:30) 7 (00:00) 15.6 8.89 (17:30) 4.44 (18:00) 0 0 0 0 0
30-04-2019 24 (16:30) 6.5 (00:00) 15.3 7.22 (15:00) 3.89 (15:20) 0 0 0 0 0
29-04-2019 24.9 (17:30) 7.1 (00:00) 16 6.67 (18:30) 3.89 (18:30) 0 0 0 0 0
28-04-2019 22.2 (18:40) 7.1 (00:00) 14.7 6.11 (15:10) 3.61 (12:30) 0 0 0 0 0
27-04-2019 20.4 (17:20) 6 (00:00) 13.2 7.22 (17:50) 4.72 (19:40) 0 0 0 0 0
26-04-2019 18.7 (16:40) 7.5 (00:00) 13.1 11.39 (09:30) 6.11 (09:30) 0 0 0 0 0
25-04-2019 17.3 (15:50) 6.6 (00:00) 11.9 14.44 (18:20) 8.33 (18:20) 2 2 0 0 0
24-04-2019 18.3 (17:20) 4.6 (00:00) 11.4 18.06 (19:20) 13.06 (19:20) 8.1 0 0 0 8.1
23-04-2019 17.5 (13:40) 9.1 (00:00) 13.3 10.28 (14:10) 6.94 (14:10) 0.6 0 0 0.2 0.4

Gráficas

Temp. máximas Temp. mínimas Temp. medias Precipitaciones Rachas de viento máximas Velocidades máximas media en intervalos de 10 minutos

Datos horarios

Fecha y hora oficial Temperatura (ºC) Velocidad del viento (km/h) Dirección del viento Racha (km/h) Dirección de racha Precipitación (mm) Presión (hPa) Tendencia (hPa) Humedad (%)
2019-05-22 23:00:00 17.8 7 Este 11 Este 0 975.1 1.6 63
2019-05-22 22:00:00 19.2 7 Sudeste 15 Este 0 974.4 1.3 57
2019-05-22 21:00:00 22.5 12 Este 15 Este 0 973.9 0.5 36
2019-05-22 20:00:00 25 12 Norte 17 Norte 0 973.5 -0.2 30
2019-05-22 19:00:00 26.9 4 Oeste 13 Oeste 0 973.1 -1.1 25
2019-05-22 18:00:00 27.1 4 Noroeste 13 Oeste 0 973.4 -1.5 25
2019-05-22 17:00:00 26.1 7 Noroeste 21 Norte 0 973.7 -2 28
2019-05-22 16:00:00 25 10 Noroeste 21 Norte 0 974.2 -2 32
2019-05-22 15:00:00 23.6 8 Oeste 18 Oeste 0 974.9 -1.7 34
2019-05-22 14:00:00 22.4 6 Sudoeste 18 Oeste 0 975.7 -1.2 32
2019-05-22 13:00:00 20.8 6 Sudoeste 11 Sudoeste 0 976.2 -0.9 44
2019-05-22 12:00:00 19.2 6 Oeste 11 Sudoeste 0 976.6 -0.6 49
2019-05-22 11:00:00 17 5 Noroeste 13 Sudoeste 0 976.9 -0.4 55
2019-05-22 10:00:00 14.6 8 Oeste 13 Oeste 0 977.1 0.1 65
2019-05-22 09:00:00 12 9 Oeste 13 Oeste 0 977.2 0.4 73
2019-05-22 08:00:00 10 10 Oeste 15 Oeste 0 977.3 0.5 79
2019-05-22 07:00:00 7.8 6 Oeste 11 Oeste 0 977 0.4 86
2019-05-22 06:00:00 6.9 9 Oeste 9 Oeste 0 976.8 0.1 90
2019-05-22 05:00:00 6.9 5 Oeste 9 Nordeste 0 976.8 0 91
2019-05-22 04:00:00 7.7 8 Sudoeste 9 Sudoeste 0 976.6 -0.1 89
2019-05-22 03:00:00 7.8 3 Sur 11 Sudoeste 0 976.7 0.1 84
2019-05-22 02:00:00 8.7 5 Oeste 8 Oeste 0 976.8 0.3 85
2019-05-22 01:00:00 9.4 2 Noroeste 8 Sudoeste 0 976.7 1.1 80
2019-05-22 00:00:00 10.6 3 Nordeste 8 Nordeste 0 976.6 1.9 70
2019-05-21 23:00:00 13 0 Calma 8 Este 0 976.5 2.5 60
2019-05-21 22:00:00 15 5 Norte 15 Este 0 975.6 2.1 51
2019-05-21 21:00:00 19.2 7 Norte 22 Norte 0 974.7 -- 39
2019-05-21 20:00:00 20.6 11 Noroeste 24 Norte 0 974 0.7 40
2019-05-21 19:00:00 21.9 12 Norte -- -- -- 973.5 0 33
2019-05-21 18:00:00 -- -- -- -- -- -- -- -- --
2019-05-21 17:00:00 22.8 11 Noroeste 22 Norte 0 973.3 -1 31
2019-05-21 16:00:00 22.6 13 Norte 26 Nordeste 0 973.5 -1.3 35
2019-05-21 15:00:00 21.7 8 Oeste 18 Oeste 0 973.8 -1.1 37
2019-05-21 14:00:00 20.4 6 Oeste 15 Sudoeste 0 974.3 -0.8 38
2019-05-21 13:00:00 18.9 8 Oeste 13 Oeste 0 974.8 -0.4 47
2019-05-21 12:00:00 17 8 Oeste 15 Oeste 0 974.9 -0.3 53
2019-05-21 11:00:00 14.9 8 Oeste 15 Oeste 0 975.1 0.1 64
2019-05-21 10:00:00 13.1 7 Oeste 15 Noroeste 0 975.2 0.8 73
2019-05-21 09:00:00 11.2 9 Oeste 13 Oeste 0 975.2 1.2 79
2019-05-21 08:00:00 9.3 5 Oeste 11 Oeste 0 975 1.1 88
2019-05-21 07:00:00 6.3 0 Calma 9 Oeste 0 974.4 0.7 93
2019-05-21 06:00:00 6.7 5 Oeste 8 Oeste 0 974 0 94
2019-05-21 05:00:00 7.1 5 Oeste 9 Sudoeste 0 973.9 -0.3 93
2019-05-21 04:00:00 7.3 0 Calma 8 Oeste 0 973.7 -0.3 92
2019-05-21 03:00:00 7.6 0 Calma 5 Noroeste 0 974 0.3 89
2019-05-21 02:00:00 8.8 3 Oeste 5 Norte 0 974.2 0.8 87
2019-05-21 01:00:00 10.1 3 Oeste 11 Este 0 974 1.6 81
2019-05-21 00:00:00 12 8 Este 13 Este 0 973.7 2.1 68
2019-05-20 23:00:00 13.2 10 Este 21 Este 0 973.4 2.3 66
2019-05-20 22:00:00 14.3 10 Este 21 Este 0 972.4 1.6 63
2019-05-20 21:00:00 17.2 13 Nordeste 17 Este 0 971.6 0.9 50
2019-05-20 20:00:00 19.4 12 Nordeste 18 Norte 0 971.1 0.3 41
2019-05-20 19:00:00 20.4 8 Norte 15 Noroeste 0 970.8 -0.5 37
2019-05-20 18:00:00 19.5 6 Noroeste 17 Noroeste 0 970.7 -1.1 38
2019-05-20 17:00:00 20.9 8 Norte 18 Norte 0 970.8 -1.5 36
2019-05-20 16:00:00 19.3 10 Norte 24 Oeste 0 971.3 -1.4 37
2019-05-20 15:00:00 19 10 Norte 21 Este 0 971.8 -1.1 42
2019-05-20 14:00:00 17.9 9 Sur 15 Sur 0 972.3 -1 46
2019-05-20 13:00:00 16.8 3 Norte 21 Norte 0 972.7 -0.7 49
2019-05-20 12:00:00 15.8 4 Sudoeste 13 Oeste 0 972.9 -0.4 51
2019-05-20 11:00:00 13.9 9 Oeste 15 Oeste 0 973.3 0.2 54
2019-05-20 10:00:00 12.4 7 Oeste 15 Oeste 0 973.4 0.7 63
2019-05-20 09:00:00 9.5 9 Oeste 15 Oeste 0 973.3 0.9 77
2019-05-20 08:00:00 7.9 6 Oeste 9 Oeste 0 973.1 0.7 84
2019-05-20 07:00:00 5.7 8 Oeste 9 Oeste 0 972.7 0.1 93
2019-05-20 06:00:00 4.7 3 Noroeste 8 Sudoeste 0 972.4 -0.5 90
2019-05-20 05:00:00 6.7 4 Oeste 11 Oeste 0 972.4 -0.9 88
2019-05-20 04:00:00 6.9 5 Sudoeste 11 Oeste 0 972.6 -0.9 86
2019-05-20 03:00:00 7.4 5 Noroeste 9 Norte 0 972.9 -0.5 84
2019-05-20 02:00:00 8.7 8 Sudoeste 11 Sudoeste 0 973.3 0.2 77
2019-05-20 01:00:00 9 8 Oeste 13 Oeste 0 973.5 1.1 80
2019-05-20 00:00:00 9.5 4 Oeste 13 Oeste 0 973.4 1.5 82
2019-05-19 23:00:00 11.1 5 Oeste 17 Oeste 0 973.1 1.6 70
2019-05-19 22:00:00 11.6 5 Oeste 21 Noroeste 0 972.4 0.9 70
2019-05-19 21:00:00 13.3 5 Noroeste 17 Oeste 0 971.9 0.2 62
2019-05-19 20:00:00 13.9 8 Oeste 21 Norte 0 971.5 -0.2 60
2019-05-19 19:00:00 15.5 13 Noroeste 28 Noroeste 0 971.5 -0.1 55
2019-05-19 18:00:00 14.6 14 Noroeste 39 Oeste 0 971.7 0.2 57
2019-05-19 17:00:00 14 11 Oeste 24 Noroeste 0 971.7 0.7 61
2019-05-19 16:00:00 14.1 15 Oeste 26 Oeste 0 971.6 0.9 60
2019-05-19 15:00:00 13.4 12 Oeste 24 Oeste 0 971.5 0.9 63
2019-05-19 14:00:00 13.7 15 Oeste 26 Oeste 0 971 0.6 61
2019-05-19 13:00:00 13 13 Oeste 35 Oeste 0 970.7 0.6 62
2019-05-19 12:00:00 12.9 15 Oeste 33 Oeste 0 970.6 0.9 61
2019-05-19 11:00:00 12.3 18 Oeste 33 Sudoeste 0 970.4 1.1 64
2019-05-19 10:00:00 11.9 17 Oeste 37 Oeste 0 970.1 1.2 65
2019-05-19 09:00:00 11.1 17 Oeste 33 Oeste 0 969.7 0.6 68
2019-05-19 08:00:00 10.9 18 Oeste 33 Oeste 0 969.3 0.5 71
2019-05-19 07:00:00 10.6 21 Oeste 33 Oeste 0 968.9 0 72
2019-05-19 06:00:00 10.9 19 Oeste 32 Oeste 0 969.1 0.2 69
2019-05-19 05:00:00 10.6 19 Oeste 32 Oeste 0 968.8 -0.7 70
2019-05-19 04:00:00 10.5 18 Oeste 41 Oeste 0 968.9 -1 70
2019-05-19 03:00:00 10.3 22 Oeste 39 Sudoeste 0 968.9 -1.1 71
2019-05-19 02:00:00 10.5 20 Oeste 32 Oeste 0 969.5 -0.6 70
2019-05-19 01:00:00 10.4 15 Oeste 28 Oeste 0 969.9 0.1 73
2019-05-19 00:00:00 10.8 20 Oeste 30 Sudoeste 0 970 0.3 71
2019-05-18 23:00:00 10.3 17 Sudoeste 30 Sudoeste 0 970.1 1.1 76
2019-05-18 22:00:00 10.8 12 Oeste 26 Oeste 0 969.8 1.4 75
2019-05-18 21:00:00 11.1 15 Oeste 26 Noroeste 0 969.7 1.1 71
2019-05-18 20:00:00 12.7 7 Oeste 28 Oeste 0 969 1.1 68
2019-05-18 19:00:00 13.6 19 Oeste 33 Oeste 0 968.4 0.7 62
2019-05-18 18:00:00 11.9 13 Oeste 32 Oeste 0.2 968.6 0.9 76
2019-05-18 17:00:00 12.9 13 Oeste 32 Noroeste 0.4 967.9 -0.3 69
2019-05-18 16:00:00 15.3 19 Oeste 35 Oeste 0 967.7 -1 54
2019-05-18 15:00:00 15 14 Oeste 30 Noroeste 0 967.7 -0.5 50
2019-05-18 14:00:00 13.5 13 Oeste 32 Oeste 0 968.2 0.1 55
2019-05-18 13:00:00 12.5 16 Oeste 37 Oeste 0 968.7 0.6 59
2019-05-18 12:00:00 12.5 18 Oeste 32 Oeste 0 968.2 0.2 56
2019-05-18 11:00:00 13.2 15 Oeste 28 Oeste 0 968.1 0.2 55
2019-05-18 10:00:00 11.6 17 Oeste 28 Oeste 0 968.1 0.3 60
2019-05-18 09:00:00 10.6 13 Oeste 22 Oeste 0 968 0.3 64
2019-05-18 08:00:00 9.4 4 Oeste 18 Sudoeste 0 967.9 -0.3 73
2019-05-18 07:00:00 7.6 7 Oeste 13 Sudoeste 0 967.8 -0.5 78
2019-05-18 06:00:00 8.8 7 Oeste 13 Oeste 0 967.7 -1.1 71
2019-05-18 05:00:00 8.7 5 Norte 11 Noroeste 0 968.2 -1 79
2019-05-18 04:00:00 9.1 6 Oeste 15 Oeste 0 968.3 -1 74
2019-05-18 03:00:00 8.7 6 Oeste 11 Oeste 0 968.8 -0.7 82
2019-05-18 02:00:00 9.3 8 Oeste 18 Oeste 0 969.2 -0.6 77
2019-05-18 01:00:00 9.4 12 Oeste 17 Oeste 0 969.3 0.1 77
2019-05-18 00:00:00 10 10 Oeste 15 Oeste 0 969.5 0.7 74
2019-05-17 23:00:00 10.8 4 Noroeste 15 Oeste 0 969.8 1.4 69
2019-05-17 22:00:00 11.3 6 Oeste 11 Noroeste 0 969.2 1 72
2019-05-17 21:00:00 11.7 7 Oeste 21 Oeste 0 968.8 0.5 70
2019-05-17 20:00:00 12.6 8 Noroeste 22 Oeste 0 968.4 0.3 66
2019-05-17 19:00:00 13 14 Oeste 22 Oeste 0 968.2 0 66
2019-05-17 18:00:00 12 19 Oeste 33 Oeste 0 968.3 0.8 69
2019-05-17 17:00:00 11.3 17 Oeste 33 Oeste 0 968.1 1 75
2019-05-17 16:00:00 11.3 19 Oeste 39 Oeste 0 968.2 1.7 76
2019-05-17 15:00:00 12 20 Oeste 41 Oeste 0 967.5 1.3 72
2019-05-17 14:00:00 12 23 Oeste 39 Oeste 0 967.1 2.3 70
2019-05-17 13:00:00 11.7 22 Oeste 37 Oeste 0 966.5 2.9 73
2019-05-17 12:00:00 10.8 18 Oeste 39 Oeste 0.3 966.2 3.1 80
2019-05-17 11:00:00 11.1 24 Oeste 46 Oeste 0 964.8 1.7 76
2019-05-17 10:00:00 11.2 26 Oeste 45 Oeste 0 963.6 1 77
2019-05-17 09:00:00 11 23 Oeste 35 Oeste 0 963.1 0.5 84
2019-05-17 08:00:00 10.2 12 Oeste 22 Oeste 0.1 963.1 0.3 88
2019-05-17 07:00:00 10.1 12 Oeste 21 Sudoeste 0 962.6 -0.6 88
2019-05-17 06:00:00 9.8 11 Oeste 21 Oeste 0.6 962.6 -2 92
2019-05-17 05:00:00 9.5 11 Oeste 24 Oeste 2.1 962.8 -1.7 91
2019-05-17 04:00:00 9.3 10 Oeste 18 Sudoeste 4.8 963.2 -1 94
2019-05-17 03:00:00 9.8 12 Sudoeste 32 Oeste 2.6 964.6 0.9 88
2019-05-17 02:00:00 9.8 16 Oeste 37 Oeste 4.6 964.5 0.3 89
2019-05-17 01:00:00 10.9 19 Oeste 35 Oeste 3.7 964.2 0.1 86
2019-05-17 00:00:00 13.1 7 Oeste 13 Oeste 0.1 963.7 0.3 85
2019-05-16 23:00:00 13.5 5 Oeste 13 Oeste 0.1 964.2 1.4 82
2019-05-16 22:00:00 14 7 Oeste 15 Oeste 2.3 964.1 2.2 83
2019-05-16 21:00:00 17.3 4 Oeste 21 Oeste 0 963.4 1.1 63
2019-05-16 20:00:00 18.6 8 Sur 26 Norte 0 962.8 0.1 57
2019-05-16 19:00:00 22.4 10 Noroeste 22 Noroeste 0 961.9 -2.1 46
2019-05-16 18:00:00 24.8 12 Este 28 Este 0 962.3 -2.9 28
2019-05-16 17:00:00 25.3 18 Este 30 Este 0 962.7 -3.5 27
2019-05-16 16:00:00 24.1 19 Este 30 Este 0 964 -3.5 30
2019-05-16 15:00:00 23.3 18 Este 30 Este 0 965.2 -3.2 32
2019-05-16 14:00:00 21.9 21 Este 28 Este 0 966.2 -2.9 34
2019-05-16 13:00:00 20.1 17 Este 28 Este 0 967.5 -2.4 41
2019-05-16 12:00:00 18.6 19 Este 30 Este 0 968.4 -1.8 46
2019-05-16 11:00:00 17.3 18 Este 26 Este 0 969.1 -1.4 50
2019-05-16 10:00:00 14.5 16 Este 24 Este 0 969.9 -0.6 60
2019-05-16 09:00:00 13.1 13 Este 18 Este 0 970.2 -0.3 64
2019-05-16 08:00:00 11.8 10 Este 13 Este 0 970.5 -0.1 71
2019-05-16 07:00:00 9.9 9 Este 13 Este 0 970.5 -0.3 76
2019-05-16 06:00:00 9 9 Este 11 Este 0 970.5 -0.3 78
2019-05-16 05:00:00 9.3 4 Este 9 Este 0 970.6 -0.8 73
2019-05-16 04:00:00 7.7 10 Nordeste 15 Este 0 970.8 -0.5 75
2019-05-16 03:00:00 10 0 Calma 5 Oeste 0 970.8 -0.7 73
2019-05-16 02:00:00 10.7 2 Norte 5 Nordeste 0 971.4 0 66
2019-05-16 01:00:00 12.9 2 Este 11 Oeste 0 971.3 0.6 55
2019-05-16 00:00:00 15.2 6 Oeste 15 Este 0 971.5 1.4 46
2019-05-15 23:00:00 18.1 10 Este 17 Sudeste 0 971.4 1.9 29
2019-05-15 22:00:00 19.3 8 Este 11 Este 0 970.7 1.2 28
2019-05-15 21:00:00 22.5 5 Nordeste 24 Norte 0 970.1 0.8 24
2019-05-15 20:00:00 25.6 15 Norte 28 Norte 0 969.5 0.2 19
2019-05-15 19:00:00 27.3 11 Noroeste 26 Noroeste 0 969.5 -0.2 18
2019-05-15 18:00:00 27.7 10 Noroeste 22 Norte 0 969.3 -0.8 20
2019-05-15 17:00:00 27.9 10 Noroeste 26 Oeste 0 969.3 -1.2 21
2019-05-15 16:00:00 28.3 10 Oeste 22 Oeste 0 969.7 -1.6 18
2019-05-15 15:00:00 27.7 11 Noroeste 28 Oeste 0 970.1 -1.7 20
2019-05-15 14:00:00 26.3 14 Oeste 24 Sudoeste 0 970.5 -1.5 23
2019-05-15 13:00:00 24.5 15 Oeste 28 Oeste 0 971.3 -1 26
2019-05-15 12:00:00 22.3 14 Oeste 32 Oeste 0 971.8 -0.8 30
2019-05-15 11:00:00 20 17 Oeste 28 Oeste 0 972 -0.3 38
2019-05-15 10:00:00 17.7 14 Oeste 22 Oeste 0 972.3 0.4 44
2019-05-15 09:00:00 14.9 12 Oeste 26 Oeste 0 972.6 0.7 52
2019-05-15 08:00:00 12.5 12 Sudoeste 17 Sudoeste 0 972.3 0.2 58
2019-05-15 07:00:00 10.9 9 Oeste 17 Sudoeste 0 971.9 -0.2 66
2019-05-15 06:00:00 11.5 10 Oeste 15 Oeste 0 971.9 -0.7 65
2019-05-15 05:00:00 12.2 8 Oeste 18 Oeste 0 972.1 -1 64
2019-05-15 04:00:00 13.6 13 Oeste 24 Oeste 0 972.1 -0.7 58
2019-05-15 03:00:00 14.4 9 Oeste 21 Oeste 0 972.6 -0.4 56
2019-05-15 02:00:00 15.3 8 Oeste 18 Oeste 0 973.1 0.3 53
2019-05-15 01:00:00 15.6 11 Oeste 18 Oeste 0 972.8 0.6 55
2019-05-15 00:00:00 15.6 5 Oeste 9 Sudoeste 0 973 1.3 64
2019-05-14 23:00:00 18.6 7 Sudoeste 9 Oeste 0 972.8 1.4 46
2019-05-14 22:00:00 20.6 3 Sudoeste 9 Sur 0 972.2 0.9 40
2019-05-14 21:00:00 23.9 8 Sudoeste 17 Noroeste 0 971.7 0.3 31
2019-05-14 20:00:00 27 11 Noroeste 21 Norte 0 971.4 -0.5 25
2019-05-14 19:00:00 28.8 10 Oeste 21 Sudoeste 0 971.3 -1.6 16
2019-05-14 18:00:00 28.5 11 Oeste 15 Oeste 0 971.4 -2.6 16
2019-05-14 17:00:00 28 6 Oeste 13 Sudoeste 0 971.9 -3 19
2019-05-14 16:00:00 26.8 6 Noroeste 15 Sudoeste 0 972.9 -2.8 19
2019-05-14 15:00:00 24.7 8 Oeste 17 Sudoeste 0 974 -2.4 24
2019-05-14 14:00:00 23.4 5 Oeste 11 Oeste 0 974.9 -2.4 25
2019-05-14 13:00:00 21.4 5 Oeste 13 Sudoeste 0 975.7 -2.4 29
2019-05-14 12:00:00 19.6 5 Oeste 13 Oeste 0 976.4 -2.1 30
2019-05-14 11:00:00 16.4 9 Oeste 17 Oeste 0 977.3 -1.4 42
2019-05-14 10:00:00 13.7 9 Oeste 17 Oeste 0 978.1 -0.7 49
2019-05-14 09:00:00 11.2 8 Oeste 17 Oeste 0 978.5 -0.3 56
2019-05-14 08:00:00 9 11 Oeste 17 Oeste 0 978.7 -0.3 62
2019-05-14 07:00:00 7.3 10 Oeste 13 Oeste 0 978.8 -0.3 64
2019-05-14 06:00:00 8.1 7 Oeste 13 Oeste 0 978.8 -0.9 63
2019-05-14 05:00:00 8.8 9 Oeste 15 Oeste 0 979 -1.1 59
2019-05-14 04:00:00 9.6 10 Oeste 15 Oeste 0 979.1 -1.2 57
2019-05-14 03:00:00 10.3 10 Oeste 15 Oeste 0 979.7 -0.5 56
2019-05-14 02:00:00 11 8 Oeste 15 Oeste 0 980.1 0 53
2019-05-14 01:00:00 12.2 9 Oeste 18 Oeste 0 980.3 0.7 48
2019-05-14 00:00:00 13.5 14 Oeste 21 Oeste 0 980.2 1.3 40
2019-05-13 23:00:00 14.5 13 Oeste 21 Oeste 0 980.1 1.6 36
2019-05-13 22:00:00 15.3 12 Oeste 22 Oeste 0 979.6 1.2 33
2019-05-13 21:00:00 17.3 9 Noroeste 21 Noroeste 0 978.9 0.7 27
2019-05-13 20:00:00 20.3 13 Noroeste 28 Norte 0 978.5 0 24
2019-05-13 19:00:00 21.9 14 Oeste 30 Noroeste 0 978.4 -0.5 21
2019-05-13 18:00:00 23.5 11 Noroeste 24 Noroeste 0 978.2 -1.2 18
2019-05-13 17:00:00 23.2 14 Noroeste 33 Noroeste 0 978.5 -1.8 17
2019-05-13 16:00:00 22.9 14 Oeste 33 Noroeste 0 978.9 -1.9 18
2019-05-13 15:00:00 22.3 15 Noroeste 33 Noroeste 0 979.4 -2.1 20
2019-05-13 14:00:00 21.2 15 Noroeste 32 Norte 0 980.3 -1.7 21
2019-05-13 13:00:00 20.4 14 Noroeste 39 Norte 0 980.8 -1.6 23
2019-05-13 12:00:00 19.5 13 Noroeste 28 Noroeste 0 981.5 -1.3 26
2019-05-13 11:00:00 17 13 Oeste 28 Oeste 0 982 -1 40
2019-05-13 10:00:00 14.4 20 Oeste 33 Oeste 0 982.4 -0.6 52
2019-05-13 09:00:00 12.6 18 Oeste 32 Oeste 0 982.8 -0.3 62
2019-05-13 08:00:00 10.1 16 Oeste 26 Oeste 0 983 -0.3 71
2019-05-13 07:00:00 9.1 13 Oeste 24 Oeste 0 983 -0.6 75
2019-05-13 06:00:00 9.4 13 Oeste 22 Oeste 0 983.1 -0.7 74
2019-05-13 05:00:00 9.4 13 Oeste 18 Oeste 0 983.3 -1 72
2019-05-13 04:00:00 10 10 Oeste 17 Oeste 0 983.6 -0.7 73
2019-05-13 03:00:00 10.5 10 Oeste 17 Oeste 0 983.8 -0.7 74
2019-05-13 02:00:00 11.3 10 Oeste 17 Oeste 0 984.3 -0.2 70
2019-05-13 01:00:00 11.9 5 Oeste 13 Sudoeste 0 984.3 0.3 63
2019-05-13 00:00:00 12.7 10 Sudoeste 15 Oeste 0 984.5 1.3 59
2019-05-12 23:00:00 12.4 6 Oeste 9 Noroeste 0 984.5 2 66
2019-05-12 22:00:00 14.3 4 Norte 13 Noroeste 0 984 1.4 52
2019-05-12 21:00:00 17.8 6 Norte 22 Noroeste 0 983.2 0.5 41
2019-05-12 20:00:00 20.7 11 Noroeste 24 Norte 0 982.5 -0.3 33
2019-05-12 19:00:00 22.3 10 Noroeste 24 Noroeste 0 982.6 -0.7 28
2019-05-12 18:00:00 22.9 11 Oeste 21 Oeste 0 982.7 -1.1 25
2019-05-12 17:00:00 22.8 11 Noroeste 24 Oeste 0 982.8 -1.7 25
2019-05-12 16:00:00 22.1 11 Oeste 28 Oeste 0 983.3 -1.8 31
2019-05-12 15:00:00 20.8 12 Oeste 26 Oeste 0 983.8 -1.9 33
2019-05-12 14:00:00 19 14 Oeste 24 Oeste 0 984.5 -1.7 38
2019-05-12 13:00:00 17.6 11 Sudoeste 18 Sudoeste 0 985.1 -1.7 43
2019-05-12 12:00:00 16 9 Sudoeste 21 Oeste 0 985.7 -1.1 46
2019-05-12 11:00:00 13.9 11 Oeste 21 Oeste 0 986.2 -0.7 54
2019-05-12 10:00:00 12.5 10 Oeste 21 Oeste 0 986.8 0.1 60
2019-05-12 09:00:00 10.7 13 Oeste 18 Oeste 0 986.8 0.5 69
2019-05-12 08:00:00 8.9 8 Oeste 13 Oeste 0 986.9 0.7 78
2019-05-12 07:00:00 7.3 7 Oeste 17 Oeste 0 986.7 0.5 83
2019-05-12 06:00:00 7.6 7 Oeste 15 Oeste 0 986.3 0.1 82
2019-05-12 05:00:00 7.5 10 Oeste 13 Oeste 0 986.2 -0.2 82
2019-05-12 04:00:00 8.2 8 Oeste 11 Oeste 0 986.2 -0.2 78
2019-05-12 03:00:00 9.6 8 Oeste 15 Oeste 0 986.2 0.1 72
2019-05-12 02:00:00 10.5 7 Oeste 17 Norte 0 986.4 0.7 65
2019-05-12 01:00:00 11.2 7 Noroeste 17 Oeste 0 986.4 1.1 65
2019-05-12 00:00:00 11.5 4 Oeste 15 Oeste 0 986.1 1.8 63
2019-05-11 23:00:00 12.3 5 Oeste 17 Oeste 0 985.7 2.1 57
2019-05-11 22:00:00 13.6 9 Noroeste 18 Noroeste 0 985.3 2.3 53
2019-05-11 21:00:00 15.6 9 Oeste 28 Noroeste 0 984.3 1.5 43
2019-05-11 20:00:00 17.5 13 Norte 28 Noroeste 0 983.6 0.9 42
2019-05-11 19:00:00 18.5 14 Noroeste 32 Norte 0 983 0.7 41
2019-05-11 18:00:00 18.9 17 Norte 30 Noroeste 0 982.8 0.6 42
2019-05-11 17:00:00 19.7 14 Norte 28 Norte 0 982.7 0.6 40
2019-05-11 16:00:00 19.9 13 Noroeste 32 Oeste 0 982.3 0 38
2019-05-11 15:00:00 18.5 13 Noroeste 32 Norte 0 982.2 0 40
2019-05-11 14:00:00 18.3 14 Oeste 28 Oeste 0 982.1 0.5 40
2019-05-11 13:00:00 16.8 14 Oeste 24 Sudoeste 0 982.3 1.4 48
2019-05-11 12:00:00 15.2 10 Noroeste 26 Noroeste 0 982.2 2.1 59
2019-05-11 11:00:00 14 13 Noroeste 26 Oeste 0 981.6 2.3 65
2019-05-11 10:00:00 13.7 7 Noroeste 21 Noroeste 0 980.9 2.6 65
2019-05-11 09:00:00 13.5 8 Oeste 17 Noroeste 0 980.1 2.4 69
2019-05-11 08:00:00 13.5 7 Noroeste 11 Noroeste 0 979.3 2.3 72
2019-05-11 07:00:00 13.8 6 Oeste 11 Oeste 0 978.3 1.9 71
2019-05-11 06:00:00 14.1 8 Norte 17 Norte 0 977.7 1.5 72
2019-05-11 05:00:00 14.3 5 Oeste 9 Noroeste 0 977 1.1 77
2019-05-11 04:00:00 14.2 5 Oeste 9 Oeste 0 976.4 0.8 81
2019-05-11 03:00:00 14.8 6 Oeste 13 Oeste 0 976.2 1.5 77
2019-05-11 02:00:00 15.3 4 Oeste 22 Oeste 0 975.9 2.6 78
2019-05-11 01:00:00 16.1 13 Oeste 21 Noroeste 0 975.6 4.4 74
2019-05-11 00:00:00 16.8 4 Oeste 26 Oeste 0 974.7 4.3 70
2019-05-10 23:00:00 17.6 15 Oeste 30 Oeste 0 973.3 3.4 68
2019-05-10 22:00:00 20.5 5 Noroeste 18 Oeste 0 971.2 1.3 47
2019-05-10 21:00:00 23.7 11 Oeste 24 Oeste 0 970.4 0.3 33
2019-05-10 20:00:00 25.6 14 Oeste 32 Oeste 0 969.9 0 31
2019-05-10 19:00:00 25.9 15 Oeste 33 Oeste 0 969.9 0.1 33
2019-05-10 18:00:00 25.1 19 Oeste 33 Oeste 0 970.1 0.3 40
2019-05-10 17:00:00 25.1 13 Oeste 30 Oeste 0 969.9 -0.4 39
2019-05-10 16:00:00 25 11 Este 15 Este 0 969.8 -1 49
2019-05-10 15:00:00 24.2 5 Nordeste 11 Este 0 969.8 -1.2 49
2019-05-10 14:00:00 22.7 4 Nordeste 17 Nordeste 0 970.3 -0.7 55
2019-05-10 13:00:00 21.3 12 Nordeste 21 Nordeste 0 970.8 0.3 60
2019-05-10 12:00:00 20.3 10 Este 18 Sudeste 0 971 0.9 66
2019-05-10 11:00:00 17 10 Este 17 Nordeste 0 971 1.1 75
2019-05-10 10:00:00 15.3 9 Este 13 Este 0 970.5 0.8 80
2019-05-10 09:00:00 14.7 7 Este 11 Este 0 970.1 0.5 83
2019-05-10 08:00:00 13.1 3 Este 8 Este 0 969.9 0.4 91
2019-05-10 07:00:00 12.8 3 Sudeste 5 Sudeste 0 969.7 0.2 92
2019-05-10 06:00:00 12.9 3 Este 9 Este 0.4 969.6 0 90
2019-05-10 05:00:00 13.1 6 Este 9 Este 0.2 969.5 -0.2 85
2019-05-10 04:00:00 13.2 7 Nordeste 11 Este 0 969.5 0.1 82
2019-05-10 03:00:00 13.4 4 Este 11 Nordeste 0 969.6 0.5 80
2019-05-10 02:00:00 13.4 6 Este 11 Este 0 969.7 0.9 79
2019-05-10 01:00:00 13.9 6 Este 11 Este 0 969.4 1 71
2019-05-10 00:00:00 14 5 Este 9 Este 0 969.1 1 68
2019-05-09 23:00:00 14.5 9 Este 15 Este 0 968.8 1.1 65
2019-05-09 22:00:00 14.9 9 Este 11 Este 0 968.4 0.2 67
2019-05-09 21:00:00 15.5 0 Calma 13 Norte 0 968.1 -0.5 63
2019-05-09 20:00:00 15.9 9 Nordeste 13 Nordeste 0 967.7 -1.1 64
2019-05-09 19:00:00 17.7 5 Este 9 Este 0 968.2 -1.5 43
2019-05-09 18:00:00 18.1 4 Noroeste 13 Noroeste 0 968.6 -0.9 40
2019-05-09 17:00:00 17.7 5 Noroeste 21 Oeste 0 968.8 -1.1 39
2019-05-09 16:00:00 18.4 9 Noroeste 21 Oeste 0 969.7 -0.9 39
2019-05-09 15:00:00 19.7 13 Oeste 22 Sudoeste 0 969.5 -1.4 36
2019-05-09 14:00:00 18.9 6 Oeste 24 Noroeste 0 969.9 -0.9 38
2019-05-09 13:00:00 17.8 11 Oeste 24 Oeste 0 970.6 -0.2 41
2019-05-09 12:00:00 17.4 11 Oeste 24 Noroeste 0 970.9 0.3 44
2019-05-09 11:00:00 15.9 14 Oeste 32 Noroeste 0 970.8 0.5 47
2019-05-09 10:00:00 13.2 12 Oeste 24 Oeste 0 970.8 0.7 56
2019-05-09 09:00:00 12.1 8 Oeste 26 Oeste 0 970.6 1 58
2019-05-09 08:00:00 11.3 11 Noroeste 18 Noroeste 0 970.3 1 58
2019-05-09 07:00:00 10.4 4 Oeste 22 Oeste 0 970.1 1.5 60
2019-05-09 06:00:00 11.3 12 Oeste 21 Oeste 0 969.6 0.8 56
2019-05-09 05:00:00 11.6 10 Oeste 28 Sudoeste 0 969.3 1.4 56
2019-05-09 04:00:00 12.5 17 Oeste 28 Oeste 0 968.6 1.1 53
2019-05-09 03:00:00 13.4 10 Oeste 32 Oeste 0 968.8 1.4 49
2019-05-09 02:00:00 14.2 18 Oeste 35 Oeste 0 967.9 1 46
2019-05-09 01:00:00 14.9 16 Oeste 28 Oeste 0 967.5 1.5 41
2019-05-09 00:00:00 15.8 12 Oeste 39 Sudoeste 0 967.4 2.4 37
2019-05-08 23:00:00 17 23 Oeste 41 Oeste 0 966.9 2.7 32
2019-05-08 22:00:00 18 22 Oeste 46 Oeste 0 966 2.1 30
2019-05-08 21:00:00 19.3 26 Oeste 45 Oeste 0 965 1 24
2019-05-08 20:00:00 21 24 Oeste 48 Oeste 0 964.2 0.4 24
2019-05-08 19:00:00 21.6 24 Oeste 46 Sudoeste 0 963.9 -0.1 29
2019-05-08 18:00:00 22.2 30 Oeste 50 Oeste 0 964 0.2 26
2019-05-08 17:00:00 22.6 31 Oeste 55 Oeste 0 963.8 0.3 26
2019-05-08 16:00:00 22.5 27 Oeste 58 Oeste 0 964 0 28
2019-05-08 15:00:00 22.1 31 Oeste 54 Oeste 0 963.8 -0.8 31
2019-05-08 14:00:00 22.4 20 Oeste 35 Oeste 0 963.5 -1.2 37
2019-05-08 13:00:00 22.1 17 Oeste 39 Oeste 0 964 -1.1 42
2019-05-08 12:00:00 21.8 9 Oeste 17 Oeste 0 964.6 -0.8 49
2019-05-08 11:00:00 20.7 6 Oeste 11 Oeste 0 964.7 -0.6 55
2019-05-08 10:00:00 18.2 2 Noroeste 4 Noroeste 0 965.1 -0.6 63
2019-05-08 09:00:00 15.8 0 Calma 8 Este 0 965.4 -1 71
2019-05-08 08:00:00 14.2 2 Norte 17 Este 0 965.3 -1.6 76
2019-05-08 07:00:00 14.6 6 Este 13 Sudeste 0 965.7 -1.8 70
2019-05-08 06:00:00 14.3 3 Norte 11 Sur 0 966.4 -1.4 73
2019-05-08 05:00:00 15.6 0 Calma 8 Oeste 0 966.9 -1.1 67
2019-05-08 04:00:00 15.9 2 Norte 13 Oeste 0 967.5 -0.1 61
2019-05-08 03:00:00 17.5 2 Noroeste 13 Sur 0 967.8 -0.4 62
2019-05-08 02:00:00 18.8 5 Sudoeste 18 Oeste 0 968 -0.6 58
2019-05-08 01:00:00 18.8 9 Sudoeste 15 Sudoeste 0 967.6 -0.7 56
2019-05-08 00:00:00 17.1 4 Oeste 13 Oeste 0 968.2 -0.5 68
2019-05-07 23:00:00 17.8 3 Oeste 15 Sur 0 968.6 -0.4 62
2019-05-07 22:00:00 18.7 6 Norte 11 Sur 0 968.3 -1.1 59
2019-05-07 21:00:00 19.2 2 Sur 5 Este 0 968.7 -0.6 59
2019-05-07 20:00:00 20.6 3 Oeste 5 Oeste 0 969 -1 48
2019-05-07 19:00:00 22.1 -- -- -- -- 0 969.4 -1.3 53
2019-05-07 18:00:00 23.2 4 Nordeste 9 Nordeste 0 969.3 -2.1 33
2019-05-07 17:00:00 23.6 4 Este 11 Este 0 970 -2.3 32
2019-05-07 16:00:00 23 3 Sudeste 17 Este 0 970.7 -2.4 34
2019-05-07 15:00:00 22.1 9 Este 22 Sudeste 0 971.4 -2 35
2019-05-07 14:00:00 20.6 7 Nordeste 15 Este 0 972.3 -1.7 37
2019-05-07 13:00:00 19 6 Sudeste 18 Este 0 973.1 -1.1 41
2019-05-07 12:00:00 16.7 10 Este 18 Este 0 973.4 -1 46
2019-05-07 11:00:00 15 9 Este 18 Este 0 974 -0.1 53
2019-05-07 10:00:00 13.2 9 Este 11 Este 0 974.2 0.3 64
2019-05-07 09:00:00 11.4 3 Norte 5 Oeste 0 974.4 0.8 75
2019-05-07 08:00:00 8.3 3 Oeste 5 Oeste 0 974.1 0.1 87
2019-05-07 07:00:00 7.6 3 Nordeste 4 Nordeste 0 973.9 -0.3 85
2019-05-07 06:00:00 8 0 Calma 4 Norte 0 973.6 -1 86
2019-05-07 05:00:00 8.8 2 Oeste 8 Oeste 0 974 -0.6 85
2019-05-07 04:00:00 9.8 0 Calma -- -- 0 974.2 0.1 75
2019-05-07 03:00:00 10.6 8 Oeste -- -- 0 974.6 0.4 78
2019-05-07 02:00:00 10.9 5 Oeste 8 Oeste 0 974.6 0.4 76
2019-05-07 01:00:00 13.3 4 Sudeste 11 Sudeste 0 974.1 0.5 55
2019-05-07 00:00:00 13.1 6 Este 9 Este 0 974.2 1.2 57
2019-05-06 23:00:00 14.3 2 Este 11 Este 0 974.2 1.8 51
2019-05-06 22:00:00 15.8 8 Nordeste 18 Este 0 973.6 1.1 48
2019-05-06 21:00:00 19.1 8 Nordeste 13 Nordeste 0 973 0.3 42
2019-05-06 20:00:00 23.9 9 Este 13 Este 0 972.4 -0.7 26
2019-05-06 19:00:00 24.4 7 Nordeste 15 Norte 0 972.5 -1.5 22
2019-05-06 18:00:00 24.2 7 Sudoeste 13 Sudoeste 0 972.7 -1.9 22
2019-05-06 17:00:00 23.3 4 Sur 13 Sudeste 0 973.1 -2.3 23
2019-05-06 16:00:00 21.9 8 Oeste 17 Oeste 0 974 -2.1 24
2019-05-06 15:00:00 20.9 5 Oeste 13 Sur 0 974.6 -2.1 22
2019-05-06 14:00:00 18.6 6 Oeste 11 Oeste 0 975.4 -1.8 20
2019-05-06 13:00:00 17.4 6 Este 11 Este 0 976.1 -1.6 21
2019-05-06 12:00:00 14.3 5 Noroeste 15 Noroeste 0 976.7 -1.1 35
2019-05-06 11:00:00 11.4 9 Noroeste 17 Sudoeste 0 977.2 -0.6 50
2019-05-06 10:00:00 8.8 10 Oeste 17 Oeste 0 977.7 0.2 61
2019-05-06 09:00:00 6.2 13 Oeste 18 Oeste 0 977.8 0.3 70
2019-05-06 08:00:00 4.5 8 Oeste 13 Oeste 0 977.8 0.2 79
2019-05-06 07:00:00 3.2 10 Oeste 13 Oeste 0 977.5 -0.3 82
2019-05-06 06:00:00 2.5 8 Oeste 11 Oeste 0 977.5 -0.5 86
2019-05-06 05:00:00 3.1 8 Sudoeste 9 Sudoeste 0 977.6 -0.6 86
2019-05-06 04:00:00 3.4 3 Norte 9 Oeste 0 977.8 -0.7 81
2019-05-06 03:00:00 4 9 Oeste 11 Sudoeste 0 978 -0.4 85
2019-05-06 02:00:00 4.5 3 Oeste 9 Oeste 0 978.2 -0.3 82
2019-05-06 01:00:00 6.9 5 Oeste 13 Este 0 978.5 0.5 70
2019-05-06 00:00:00 7.5 7 Sudeste 11 Este 0 978.4 1.2 62
2019-05-05 23:00:00 8.5 10 Este 24 Este 0 978.5 1.8 61
2019-05-05 22:00:00 8.9 13 Este 21 Nordeste 0 978 1.5 59
2019-05-05 21:00:00 11.5 13 Nordeste 28 Norte 0 977.2 0.6 47
2019-05-05 20:00:00 14.8 20 Norte 28 Norte 0 976.7 -0.2 33
2019-05-05 19:00:00 16.3 11 Norte 21 Norte 0 976.5 -1 25
2019-05-05 18:00:00 16.6 12 Norte 24 Oeste 0 976.6 -1.5 24
2019-05-05 17:00:00 16.3 13 Noroeste 35 Noroeste 0 976.9 -1.6 26
2019-05-05 16:00:00 16.4 8 Oeste 21 Oeste 0 977.5 -1.6 28
2019-05-05 15:00:00 15.3 11 Oeste 22 Oeste 0 978.1 -1.3 28
2019-05-05 14:00:00 14.2 6 Este 24 Nordeste 0 978.5 -1.1 28
2019-05-05 13:00:00 12.8 9 Oeste 18 Sudoeste 0 979.1 -0.6 32
2019-05-05 12:00:00 11.4 8 Oeste 21 Oeste 0 979.4 -0.2 37
2019-05-05 11:00:00 10 10 Oeste 24 Oeste 0 979.6 0.6 40
2019-05-05 10:00:00 8.8 10 Oeste 22 Noroeste 0 979.7 1.3 43
2019-05-05 09:00:00 8 9 Noroeste 18 Oeste 0 979.6 1.5 48
2019-05-05 08:00:00 5.9 9 Oeste 13 Oeste 0 979 1 60
2019-05-05 07:00:00 4.8 9 Oeste 13 Oeste 0 978.4 0.5 66
2019-05-05 06:00:00 6.3 7 Noroeste 17 Noroeste 0 978.1 0.4 61
2019-05-05 05:00:00 7.2 8 Oeste 18 Noroeste 0 978 0.3 61
2019-05-05 04:00:00 8.4 9 Noroeste 17 Oeste 0 977.9 0.7 64
2019-05-05 03:00:00 8.7 6 Oeste 21 Oeste 0 977.7 0.4 70
2019-05-05 02:00:00 9.9 10 Oeste 26 Oeste 0 977.7 1.1 66
2019-05-05 01:00:00 10.1 13 Oeste 28 Oeste 0 977.2 1.6 64
2019-05-05 00:00:00 10.6 12 Oeste 32 Noroeste 0 977.3 2.7 67
2019-05-04 23:00:00 11.4 15 Noroeste 37 Noroeste 0 976.6 2.8 66
2019-05-04 22:00:00 12.3 13 Noroeste 30 Noroeste 0 975.6 1.9 63
2019-05-04 21:00:00 13.2 15 Noroeste 32 Noroeste 0 974.6 1.8 58
2019-05-04 20:00:00 15.1 14 Noroeste 37 Norte 0 973.8 1.1 49
2019-05-04 19:00:00 15.3 18 Noroeste 35 Norte 0 973.7 0.9 46
2019-05-04 18:00:00 17.4 14 Noroeste 33 Noroeste 0 972.8 0.1 40
2019-05-04 17:00:00 17.5 17 Norte 32 Norte 0 972.7 -0.3 41
2019-05-04 16:00:00 17.9 15 Oeste 32 Noroeste 0 972.8 -0.6 40
2019-05-04 15:00:00 17.5 16 Oeste 28 Oeste 0 972.7 -1 41
2019-05-04 14:00:00 16.6 16 Noroeste 30 Noroeste 0 973 -0.8 44
2019-05-04 13:00:00 14.9 13 Oeste 32 Noroeste 0 973.4 -0.7 49
2019-05-04 12:00:00 13.6 13 Oeste 26 Oeste 0 973.7 -0.4 54
2019-05-04 11:00:00 12.8 17 Oeste 24 Oeste 0 973.8 -0.1 57
2019-05-04 10:00:00 10.7 7 Oeste 15 Oeste 0 974.1 0.7 74
2019-05-04 09:00:00 9.2 12 Oeste 18 Oeste 0 974.1 0.9 77
2019-05-04 08:00:00 8.3 8 Oeste 15 Oeste 0 973.9 0.6 81
2019-05-04 07:00:00 8.6 13 Oeste 17 Oeste 0 973.4 -0.1 80
2019-05-04 06:00:00 8.9 11 Oeste 21 Oeste 0 973.2 -0.8 78
2019-05-04 05:00:00 8.7 12 Oeste 17 Sudoeste 0 973.3 -1 80
2019-05-04 04:00:00 8.6 8 Oeste 11 Oeste 0 973.5 -0.7 80
2019-05-04 03:00:00 9.2 3 Noroeste 8 Sur 0 974 -0.6 79
2019-05-04 02:00:00 9.3 5 Oeste 11 Sudoeste 0 974.3 -0.5 77
2019-05-04 01:00:00 10.1 6 Sudoeste 13 Oeste 0 974.2 -0.1 73
2019-05-04 00:00:00 10.5 8 Oeste 18 Oeste 0 974.6 0.7 69
2019-05-03 23:00:00 10.7 7 Oeste 15 Oeste 0 974.8 1 69
2019-05-03 22:00:00 10.7 9 Oeste 21 Sudoeste 0 974.3 1 68
2019-05-03 21:00:00 10.8 12 Oeste 22 Oeste 0 973.9 1.2 71
2019-05-03 20:00:00 11.8 11 Noroeste 22 Noroeste 0 973.8 1.1 65
2019-05-03 19:00:00 12.4 13 Noroeste 26 Noroeste 0 973.3 0.7 62
2019-05-03 18:00:00 13.3 13 Oeste 24 Noroeste 0 972.7 0.2 64
2019-05-03 17:00:00 12.9 14 Noroeste 24 Oeste 0 972.7 -0.3 63
2019-05-03 16:00:00 12.8 13 Oeste 28 Noroeste 0 972.6 -0.6 66
2019-05-03 15:00:00 12.7 13 Oeste 22 Oeste 0 972.5 -0.9 69
2019-05-03 14:00:00 11.3 14 Oeste 26 Oeste 0 973 -0.8 71
2019-05-03 13:00:00 11.1 14 Oeste 26 Oeste 0 973.2 -0.8 71
2019-05-03 12:00:00 10.3 12 Oeste 24 Oeste 0 973.4 -0.2 76
2019-05-03 11:00:00 9 14 Oeste 21 Oeste 0.1 973.8 0.6 80
2019-05-03 10:00:00 7.8 9 Oeste 17 Sudoeste 0.9 974 1.4 83
2019-05-03 09:00:00 8.6 6 Oeste 13 Noroeste 0.6 973.6 0.9 83
2019-05-03 08:00:00 8.8 5 Oeste 9 Oeste 0 973.2 0.1 79
2019-05-03 07:00:00 8.5 6 Oeste 11 Oeste 0 972.6 -1.1 78
2019-05-03 06:00:00 8 9 Oeste 15 Sudoeste 0 972.7 -1.6 77
2019-05-03 05:00:00 7.9 9 Sudoeste 13 Sudoeste 0 973.1 -2 76
2019-05-03 04:00:00 7.9 8 Sudoeste 11 Sudoeste 0 973.7 -1.9 76
2019-05-03 03:00:00 9.3 4 Oeste 11 Oeste 0 974.3 -1.4 70
2019-05-03 02:00:00 10 5 Oeste 13 Oeste 0 975.1 -0.7 66
2019-05-03 01:00:00 10.8 5 Oeste 17 Sudoeste 0 975.6 0.3 62
2019-05-03 00:00:00 10.8 8 Oeste 15 Oeste 0 975.7 1 62
2019-05-02 23:00:00 11.1 10 Oeste 18 Oeste 0 975.8 1.5 63
2019-05-02 22:00:00 11.7 8 Oeste 22 Norte 0 975.3 1.3 58
2019-05-02 21:00:00 12.7 7 Noroeste 26 Norte 0 974.7 0.8 55
2019-05-02 20:00:00 14.7 15 Noroeste 28 Norte 0 974.3 -0.1 49
2019-05-02 19:00:00 15.8 14 Noroeste 30 Noroeste 0 974 -0.9 47
2019-05-02 18:00:00 17.2 13 Norte 26 Noroeste 0 973.9 -1.5 43
2019-05-02 17:00:00 16.7 18 Norte 30 Norte 0 974.4 -1.6 47
2019-05-02 16:00:00 17.3 12 Noroeste 26 Norte 0 974.9 -1.4 43
2019-05-02 15:00:00 17.1 12 Noroeste 24 Norte 0 975.4 -1.1 46
2019-05-02 14:00:00 15.7 12 Oeste 24 Sudoeste 0 976 -0.7 50
2019-05-02 13:00:00 15.7 14 Oeste 24 Oeste 0 976.3 -0.6 51
2019-05-02 12:00:00 14.7 13 Oeste 21 Oeste 0 976.5 -0.3 54
2019-05-02 11:00:00 13.7 11 Oeste 21 Oeste 0 976.7 0.1 61
2019-05-02 10:00:00 12.1 12 Oeste 18 Oeste 0 976.9 1 66
2019-05-02 09:00:00 11.1 11 Oeste 18 Oeste 0 976.8 1.1 69
2019-05-02 08:00:00 10.5 12 Oeste 18 Oeste 0 976.6 0.7 71
2019-05-02 07:00:00 10.3 11 Oeste 18 Oeste 0 975.9 0 71
2019-05-02 06:00:00 10.6 11 Oeste 21 Oeste 0 975.7 -0.4 70
2019-05-02 05:00:00 10.9 10 Oeste 17 Oeste 0 975.9 -0.5 68
2019-05-02 04:00:00 11.4 11 Oeste 17 Oeste 0 975.9 -0.4 67
2019-05-02 03:00:00 11.6 9 Oeste 18 Sudoeste 0 976.1 -0.1 67
2019-05-02 02:00:00 11.5 10 Oeste 21 Noroeste 0 976.4 0.7 67
2019-05-02 01:00:00 11.7 11 Oeste 21 Noroeste 0 976.3 1.9 66
2019-05-02 00:00:00 11.8 11 Oeste 18 Oeste 0 976.2 3.3 65
2019-05-01 23:00:00 12.2 13 Oeste 24 Sudoeste 0 975.7 3.8 64
2019-05-01 22:00:00 13.4 13 Oeste 21 Sudoeste 0 974.4 3.2 55
2019-05-01 21:00:00 15.3 9 Noroeste 32 Norte 0 972.9 2.3 52
2019-05-01 20:00:00 18.2 10 Noroeste 24 Norte 0 971.9 1.6 49
2019-05-01 19:00:00 19.4 9 Noroeste 22 Norte 0 971.2 0.3 48
2019-05-01 18:00:00 21.3 16 Noroeste 32 Norte 0 970.6 -0.7 43
2019-05-01 17:00:00 23.5 5 Oeste 13 Oeste 0 970.3 -1.6 32
2019-05-01 16:00:00 22.8 7 Oeste 17 Sur 0 970.9 -1.7 32
2019-05-01 15:00:00 22.2 4 Oeste 17 Este 0 971.3 -1.9 32
2019-05-01 14:00:00 20.7 9 Nordeste 18 Este 0 971.9 -1.6 37
2019-05-01 13:00:00 19.5 5 Este 17 Este 0 972.6 -1 38
2019-05-01 12:00:00 18.2 6 Este 13 Nordeste 0 973.2 -0.5 39
2019-05-01 11:00:00 15.1 7 Sudoeste 13 Oeste 0 973.5 0 51
2019-05-01 10:00:00 12.9 7 Oeste 13 Oeste 0 973.6 0.5 60
2019-05-01 09:00:00 11 6 Oeste 11 Oeste 0 973.7 0.8 68
2019-05-01 08:00:00 8.6 5 Oeste 11 Oeste 0 973.5 0.4 78
2019-05-01 07:00:00 7.5 7 Oeste 13 Oeste 0 973.1 -0.1 80
2019-05-01 06:00:00 7.8 7 Oeste 13 Oeste 0 972.9 -0.9 80
2019-05-01 05:00:00 8.9 6 Oeste 17 Oeste 0 973.1 -1.2 72
2019-05-01 04:00:00 7.3 7 Oeste 8 Sudoeste 0 973.2 -1.1 86
2019-05-01 03:00:00 8 3 Oeste 8 Norte 0 973.8 -0.7 82
2019-05-01 02:00:00 8.9 4 Oeste 8 Sudoeste 0 974.3 -0.4 79
2019-05-01 01:00:00 9.6 0 Calma 5 Norte 0 974.3 0.1 74
2019-05-01 00:00:00 10.8 4 Nordeste 8 Sudoeste 0 974.5 0.8 70
2019-04-30 23:00:00 14.6 5 Sudoeste 9 Oeste 0 974.7 1.6 47
2019-04-30 22:00:00 15.8 4 Noroeste 11 Noroeste 0 974.2 1.1 44
2019-04-30 21:00:00 18.4 5 Norte 17 Norte 0 973.7 0.5 36
2019-04-30 20:00:00 21.4 9 Noroeste 24 Norte 0 973.1 -0.4 27
2019-04-30 19:00:00 22.7 12 Noroeste 24 Norte 0 973.1 -0.8 29
2019-04-30 18:00:00 23.2 13 Norte 22 Noroeste 0 973.2 -1.2 26
2019-04-30 17:00:00 23.8 10 Noroeste 22 Noroeste 0 973.5 -1.5 21
2019-04-30 16:00:00 23.3 9 Noroeste 22 Sudoeste 0 973.9 -1.8 22
2019-04-30 15:00:00 22.2 13 Oeste 26 Oeste 0 974.4 -1.9 28
2019-04-30 14:00:00 21.3 9 Sudoeste 18 Oeste 0 975 -1.6 26
2019-04-30 13:00:00 20 7 Oeste 18 Sudoeste 0 975.7 -1.1 27
2019-04-30 12:00:00 18.2 10 Oeste 17 Oeste 0 976.3 -0.2 45
2019-04-30 11:00:00 16.4 10 Oeste 15 Oeste 0 976.6 0.5 57
2019-04-30 10:00:00 14.1 8 Noroeste 17 Oeste 0 976.8 0.9 70
2019-04-30 09:00:00 11.5 12 Oeste 18 Oeste 0 976.5 0.7 77
2019-04-30 08:00:00 9.6 9 Sudoeste 13 Sudoeste 0 976.1 0.2 88
2019-04-30 07:00:00 6.7 5 Oeste 9 Oeste 0 975.9 -0.1 94
2019-04-30 06:00:00 6.7 2 Sur 5 Sudoeste 0 975.8 -0.3 94
2019-04-30 05:00:00 7.8 3 Sur 9 Norte 0 975.9 -0.5 94
2019-04-30 04:00:00 8.4 0 Calma 5 Oeste 0 976 -0.1 91
2019-04-30 03:00:00 9.6 2 Oeste -- -- 0 976.1 0.1 91
2019-04-30 02:00:00 10.3 0 Calma 9 Nordeste 0 976.4 0.9 89
2019-04-30 01:00:00 11.4 6 Sudoeste 9 Norte 0 976.1 1.4 85
2019-04-30 00:00:00 11.8 7 Este 9 Este 0 976 2.2 78
2019-04-29 23:00:00 15.1 5 Este 13 Sudeste 0 975.5 2.1 66
2019-04-29 22:00:00 17.2 9 Sudeste 11 Sudeste 0 974.7 1.4 56
2019-04-29 21:00:00 20 2 Noroeste 13 Norte 0 973.8 0.6 41
2019-04-29 20:00:00 22.6 11 Norte 21 Norte 0 973.4 0 33
2019-04-29 19:00:00 23.6 13 Norte 24 Norte 0 973.3 -0.9 28
2019-04-29 18:00:00 24.3 8 Norte 21 Norte 0 973.2 -1.6 29
2019-04-29 17:00:00 23.7 5 Nordeste 13 Norte 0 973.4 -2.4 30
2019-04-29 16:00:00 23.2 8 Oeste 13 Oeste 0 974.2 -2.4 31
2019-04-29 15:00:00 22.4 6 Sudeste 13 Este 0 974.8 -2.5 29
2019-04-29 14:00:00 20.3 6 Sudeste 11 Nordeste 0 975.8 -2 34
2019-04-29 13:00:00 19.7 5 Sur 11 Oeste 0 976.6 -1.9 39
2019-04-29 12:00:00 17.6 6 Oeste 13 Oeste 0 977.3 -1.3 45
2019-04-29 11:00:00 15.1 8 Oeste 15 Oeste 0 977.8 -0.9 56
2019-04-29 10:00:00 12.8 8 Oeste 15 Oeste 0 978.5 0.2 65
2019-04-29 09:00:00 10.3 9 Oeste 17 Oeste 0 978.6 0.3 74
2019-04-29 08:00:00 9.1 9 Oeste 15 Oeste 0 978.7 0.1 79
2019-04-29 07:00:00 8.1 8 Oeste 13 Oeste 0 978.3 -0.8 82
2019-04-29 06:00:00 8.3 8 Oeste 15 Oeste 0 978.3 -1.3 83
2019-04-29 05:00:00 7.6 6 Oeste 9 Sudoeste 0 978.6 -1.4 90
2019-04-29 04:00:00 7.2 7 Oeste 8 Oeste 0 979.1 -1.1 92
2019-04-29 03:00:00 7.9 5 Oeste 9 Oeste 0 979.6 -0.6 88
2019-04-29 02:00:00 8 3 Nordeste 9 Oeste 0 980 -0.2 85
2019-04-29 01:00:00 9.5 0 Calma 8 Oeste 0 980.2 0.6 81
2019-04-29 00:00:00 11.2 2 Oeste 9 Norte 0 980.2 1.3 77
2019-04-28 23:00:00 12.9 6 Nordeste 15 Este 0 980.2 1.8 63
2019-04-28 22:00:00 15.4 3 Sur 17 Noroeste 0 979.6 1.4 53
2019-04-28 21:00:00 17.6 10 Noroeste 18 Norte 0 978.9 0.7 47
2019-04-28 20:00:00 20.6 10 Noroeste 17 Noroeste 0 978.4 -0.4 37
2019-04-28 19:00:00 21.7 10 Norte 18 Norte 0 978.2 -1.6 35
2019-04-28 18:00:00 21.7 13 Oeste 21 Oeste 0 978.2 -2.4 34
2019-04-28 17:00:00 20.9 13 Oeste 22 Oeste 0 978.8 -2.7 33
2019-04-28 16:00:00 20.3 12 Sudoeste 22 Sudoeste 0 979.8 -2.7 36
2019-04-28 15:00:00 18.9 10 Oeste 18 Sudoeste 0 980.6 -2.5 41
2019-04-28 14:00:00 17.7 9 Sudoeste 21 Sudoeste 0 981.5 -2.1 42
2019-04-28 13:00:00 16 11 Oeste 21 Noroeste 0 982.5 -1.5 47
2019-04-28 12:00:00 14.5 9 Noroeste 18 Oeste 0 983.1 -1.3 52
2019-04-28 11:00:00 13.3 12 Oeste 21 Oeste 0 983.6 -1 57
2019-04-28 10:00:00 12.1 10 Oeste 17 Noroeste 0 984 -0.1 62
2019-04-28 09:00:00 10.4 7 Oeste 11 Oeste 0 984.4 0.1 74
2019-04-28 08:00:00 7.8 3 Oeste 8 Oeste 0 984.6 -0.1 84
2019-04-28 07:00:00 7.6 3 Oeste 8 Sudoeste 0 984.1 -0.9 83
2019-04-28 06:00:00 9.1 2 Oeste 8 Noroeste 0 984.3 -0.8 75
2019-04-28 05:00:00 10.1 8 Oeste 13 Oeste 0 984.7 -0.7 70
2019-04-28 04:00:00 10.4 4 Oeste 8 Oeste 0 985 -0.6 70
2019-04-28 03:00:00 10.9 4 Oeste 11 Noroeste 0 985.1 -0.7 68
2019-04-28 02:00:00 11.8 3 Noroeste 13 Oeste 0 985.4 -0.2 65
2019-04-28 01:00:00 11.9 5 Oeste 11 Oeste 0 985.6 0.5 66
2019-04-28 00:00:00 12.2 6 Noroeste 13 Noroeste 0 985.8 1.4 66
2019-04-27 23:00:00 12.5 6 Oeste 11 Oeste 0 985.6 1.9 70
2019-04-27 22:00:00 12.8 4 Nordeste 11 Norte 0 985.1 1.9 69
2019-04-27 21:00:00 13.8 6 Norte 21 Norte 0 984.4 1.6 65
2019-04-27 20:00:00 16.3 15 Norte 24 Norte 0 983.7 0.6 57
2019-04-27 19:00:00 18.5 15 Norte 24 Norte 0 983.2 -0.4 51
2019-04-27 18:00:00 19.4 15 Norte 26 Norte 0 982.8 -1.5 50
2019-04-27 17:00:00 19.7 11 Norte 22 Norte 0 983.1 -1.4 48
2019-04-27 16:00:00 18.7 12 Norte 21 Norte 0 983.6 -1 51
2019-04-27 15:00:00 17.6 10 Noroeste 21 Norte 0 984.3 -0.4 54
2019-04-27 14:00:00 17.2 6 Oeste 22 Oeste 0 984.5 -0.4 53
2019-04-27 13:00:00 17.3 12 Oeste 24 Sudoeste 0 984.6 -0.4 52
2019-04-27 12:00:00 15.4 7 Oeste 18 Noroeste 0 984.7 -0.3 57
2019-04-27 11:00:00 12.6 11 Oeste 17 Oeste 0 984.9 0.2 66
2019-04-27 10:00:00 10.7 10 Oeste 17 Oeste 0 985 0.4 73
2019-04-27 09:00:00 8.8 9 Oeste 13 Oeste 0 985 0.5 80
2019-04-27 08:00:00 6.5 7 Oeste 9 Oeste 0 984.7 0.1 87
2019-04-27 07:00:00 6.4 5 Noroeste 11 Oeste 0 984.6 0 90
2019-04-27 06:00:00 7.6 8 Sudoeste 11 Oeste 0 984.5 -0.4 85
2019-04-27 05:00:00 8.4 4 Noroeste 9 Noroeste 0 984.6 0 88
2019-04-27 04:00:00 8.5 6 Sudoeste 9 Oeste 0 984.6 0 83
2019-04-27 03:00:00 7.6 6 Oeste 8 Oeste 0 984.9 0.4 90
2019-04-27 02:00:00 6.7 4 Nordeste 8 Nordeste 0 984.6 0.4 90
2019-04-27 01:00:00 7 5 Este -- -- 0 984.6 1.4 88
2019-04-27 00:00:00 7.7 8 Nordeste 15 Este 0 984.5 2.5 84
2019-04-26 23:00:00 9.7 9 Sudeste 18 Sudeste 0 984.2 3.3 76
2019-04-26 22:00:00 11.2 14 Sudeste 21 Sudeste 0 983.2 3 72
2019-04-26 21:00:00 13.5 9 Sur 21 Sudeste 0 982 2.2 63
2019-04-26 20:00:00 16.5 6 Norte 22 Norte 0 980.9 1.1 49
2019-04-26 19:00:00 18.5 12 Oeste 28 Oeste 0 980.2 0.2 32
2019-04-26 18:00:00 18.4 16 Oeste 33 Oeste 0 979.8 -0.2 30
2019-04-26 17:00:00 18.4 22 Oeste 41 Oeste 0 979.8 -0.3 30
2019-04-26 16:00:00 17.9 17 Oeste 37 Oeste 0 980 -0.4 33
2019-04-26 15:00:00 17.2 18 Oeste 35 Norte 0 980 -0.3 39
2019-04-26 14:00:00 16.2 17 Oeste 33 Sudoeste 0 980.1 0.5 45
2019-04-26 13:00:00 15.2 17 Oeste 35 Oeste 0 980.4 1.5 49
2019-04-26 12:00:00 14.2 17 Oeste 35 Oeste 0 980.3 2.5 53
2019-04-26 11:00:00 13.2 18 Oeste 37 Oeste 0 979.6 2.7 57
2019-04-26 10:00:00 11.7 18 Oeste 41 Oeste 0 978.9 3.2 62
2019-04-26 09:00:00 11 19 Oeste 32 Oeste 0 977.8 2.8 66
2019-04-26 08:00:00 10.3 10 Oeste 18 Sudoeste 0 976.9 2.4 69
2019-04-26 07:00:00 10.2 11 Oeste 21 Oeste 0 975.7 1.9 67
2019-04-26 06:00:00 10.4 14 Oeste 22 Sudoeste 0 975 1.4 66
2019-04-26 05:00:00 10.7 12 Oeste 26 Oeste 0 974.5 1.4 64
2019-04-26 04:00:00 10.7 15 Oeste 28 Oeste 0 973.8 1.6 63
2019-04-26 03:00:00 9.6 8 Este 11 Oeste 0 973.6 2.1 71
2019-04-26 02:00:00 8.9 3 Sur 5 Sur 0 973.1 2.3 74
2019-04-26 01:00:00 8 0 Calma 8 Oeste 0 972.2 2.7 80
2019-04-26 00:00:00 7.6 6 Sudeste 9 Este 0 971.5 3.5 75
2019-04-25 23:00:00 9.8 6 Sudoeste 24 Sudoeste 0 970.8 3.6 65
2019-04-25 22:00:00 10.6 17 Oeste 28 Oeste 0 969.5 2.4 62
2019-04-25 21:00:00 12.9 8 Oeste 22 Sudoeste 0 968 1.8 50
2019-04-25 20:00:00 14.1 15 Sudoeste 39 Sudoeste 0 967.2 1.2 46
2019-04-25 19:00:00 15.5 23 Sudoeste 52 Sudoeste 0 967.1 1.2 37
2019-04-25 18:00:00 16.5 13 Oeste 32 Sudoeste 0 966.2 0.5 33
2019-04-25 17:00:00 16.5 15 Oeste 32 Oeste 0 966 0.6 35
2019-04-25 16:00:00 16.6 17 Oeste 35 Sudoeste 0 965.9 0.4 35
2019-04-25 15:00:00 14.9 19 Sudoeste 35 Sudoeste 0 965.7 0.6 40
2019-04-25 14:00:00 16.3 18 Sudoeste 35 Oeste 0 965.4 0.7 39
2019-04-25 13:00:00 15.3 20 Sudoeste 45 Oeste 0 965.5 0.7 38
2019-04-25 12:00:00 14.5 26 Oeste 41 Oeste 0 965.1 1 41
2019-04-25 11:00:00 13.4 17 Oeste 45 Sudoeste 0 964.7 1.2 50
2019-04-25 10:00:00 11.1 18 Sudoeste 28 Sudoeste 0 964.8 2 61
2019-04-25 09:00:00 9.5 7 Este 9 Este 0 964.1 1.9 80
2019-04-25 08:00:00 7.1 5 Este 8 Sudeste 0 963.5 1.9 89
2019-04-25 07:00:00 7 4 Sudoeste 17 Oeste 0 962.8 1.9 87
2019-04-25 06:00:00 8.5 7 Oeste 17 Oeste 0 962.2 1.9 82
2019-04-25 05:00:00 8.1 9 Sudeste 13 Sudeste 0 961.6 1.5 90
2019-04-25 04:00:00 9.6 9 Oeste 21 Sur 0.2 960.9 1.1 84
2019-04-25 03:00:00 10.8 16 Sur 28 Sur 0.6 960.3 0.5 74
2019-04-25 02:00:00 9.5 5 Noroeste 13 Sudeste 1.1 960.1 0 93
2019-04-25 01:00:00 9.1 9 Este 13 Este 0.1 959.8 0.2 94
2019-04-25 00:00:00 9.6 3 Este 8 Nordeste 0 959.8 -0.1 92
2019-04-24 23:00:00 10 4 Este 11 Nordeste 0 960.1 2 94
2019-04-24 22:00:00 10.6 10 Este 17 Este 1.1 959.6 3.5 91
2019-04-24 21:00:00 10.8 3 Sudoeste 26 Oeste 5.5 959.9 3.1 89
2019-04-24 20:00:00 12.6 15 Sur 65 Este 1.5 958.1 0.4 76
2019-04-24 19:00:00 13.4 30 Este 52 Este 0 956.1 -2 67
2019-04-24 18:00:00 14.5 39 Este 54 Este 0 956.8 -1.8 59
2019-04-24 17:00:00 17.6 24 Este 42 Sudeste 0 957.7 -1.1 47
2019-04-24 16:00:00 15.7 30 Este 46 Este 0 958.1 -1.2 49
2019-04-24 15:00:00 15.1 12 Sur 24 Sur 0 958.6 -0.9 47
2019-04-24 14:00:00 14.9 22 Sur 35 Sur 0 958.8 -0.6 45
2019-04-24 13:00:00 13.4 19 Este 32 Sudeste 0 959.3 0 53
2019-04-24 12:00:00 11.2 15 Sudeste 24 Sudeste 0 959.5 0 58
2019-04-24 11:00:00 10.2 12 Este 28 Sudeste 0 959.4 0.1 66
2019-04-24 10:00:00 8.4 9 Este 13 Este 0 959.3 0.4 85
2019-04-24 09:00:00 7.4 6 Este 8 Nordeste 0 959.5 0.7 85
2019-04-24 08:00:00 5.8 3 Noroeste 9 Norte 0 959.3 0.3 91
2019-04-24 07:00:00 5.1 3 Norte 9 Este 0 958.9 0 90
2019-04-24 06:00:00 6.7 4 Sudoeste 9 Este 0 958.8 0.2 85
2019-04-24 05:00:00 7.4 5 Oeste 8 Sudoeste 0 959 0.7 80
2019-04-24 04:00:00 7.3 3 Sudoeste 5 Sudoeste 0 958.9 1 86
2019-04-24 03:00:00 8.5 4 Sudoeste 9 Sudoeste 0 958.6 1.1 76
2019-04-24 02:00:00 8.6 5 Sudoeste 8 Oeste 0 958.3 1.1 79
2019-04-24 01:00:00 8.6 3 Sur 8 Este 0 957.9 1.2 82
2019-04-24 00:00:00 9.1 5 Sudoeste 13 Oeste 0 957.5 2.9 75
2019-04-23 23:00:00 9.6 8 Oeste 28 Oeste 0 957.2 3.1 71
2019-04-23 22:00:00 9.8 10 Oeste 26 Noroeste 0 956.7 2.3 84
2019-04-23 21:00:00 11.1 4 Sudoeste 11 Sur 0 954.6 0.6 79
2019-04-23 20:00:00 11.1 5 Sudoeste 17 Oeste 0.3 954.1 0.9 77
2019-04-23 19:00:00 11.5 10 Oeste 18 Oeste 0.1 954.4 0.6 70
2019-04-23 18:00:00 12.2 13 Oeste 22 Oeste 0.2 954 0.9 68
2019-04-23 17:00:00 12.1 10 Oeste 24 Oeste 0 953.2 0.7 71
2019-04-23 16:00:00 12 14 Oeste 33 Oeste 0 953.8 0.9 69
2019-04-23 15:00:00 13.6 18 Oeste 37 Sudeste 0 953.1 -0.2 66
2019-04-23 14:00:00 16.7 19 Sudeste 33 Sudeste 0 952.5 -0.8 53
2019-04-23 13:00:00 15.8 21 Este 26 Este 0 952.9 -0.5 70
2019-04-23 12:00:00 15.7 19 Nordeste 24 Nordeste 0 953.3 -0.3 72
2019-04-23 11:00:00 13.3 14 Este 18 Este 0 953.3 -0.2 82
2019-04-23 10:00:00 12.1 13 Este 17 Este 0 953.4 -0.1 83
2019-04-23 09:00:00 11.2 10 Este 15 Este 0 953.6 0.1 87
2019-04-23 08:00:00 10.6 9 Este 17 Este 0 953.5 -0.2 86
2019-04-23 07:00:00 10.6 13 Este 22 Nordeste 0 953.5 -0.5 85
2019-04-23 06:00:00 10.8 17 Nordeste 22 Nordeste 0 953.5 -0.8 82
2019-04-23 05:00:00 11.1 15 Nordeste 28 Nordeste 0 953.7 -1.2 81
2019-04-23 04:00:00 11.5 21 Nordeste 26 Este 0 954 -1 81
2019-04-23 03:00:00 12.3 14 Este 21 Este 0 954.3 -1 79
2019-04-23 02:00:00 12.9 12 Nordeste 18 Este 0 954.9 -0.4 77
2019-04-23 01:00:00 13.4 11 Nordeste 15 Nordeste 0 955 -0.5 74
2019-04-23 00:00:00 13.2 12 Este 17 Este 0 955.3 -0.1 74